createdAt,value
2022-09-12T00:02:16.030Z,71.68
2022-09-12T00:04:42.715Z,71.45
2022-09-12T00:07:09.550Z,71.54
2022-09-12T00:09:36.188Z,71.75
2022-09-12T00:12:02.851Z,71.67
2022-09-12T00:14:29.547Z,71.49
2022-09-12T00:17:00.167Z,71.55
2022-09-12T00:19:28.730Z,71.32
2022-09-12T00:21:55.564Z,71.49
2022-09-12T00:24:22.406Z,71.42
2022-09-12T00:26:49.138Z,71.33
2022-09-12T00:29:17.911Z,71.20
2022-09-12T00:31:44.811Z,71.19
2022-09-12T00:34:11.781Z,71.43
2022-09-12T00:36:39.240Z,71.28
2022-09-12T00:39:06.697Z,70.82
2022-09-12T00:41:38.930Z,70.68
2022-09-12T00:44:24.154Z,71.53
2022-09-12T00:47:14.175Z,70.85
2022-09-12T00:49:52.060Z,71.28
2022-09-12T00:52:34.313Z,71.41
2022-09-12T00:55:25.066Z,71.33
2022-09-12T00:58:04.361Z,70.78
2022-09-12T01:00:30.972Z,71.01
2022-09-12T01:03:02.969Z,71.00
2022-09-12T01:05:30.902Z,70.95
2022-09-12T01:07:57.552Z,71.30
2022-09-12T01:10:24.712Z,71.05
2022-09-12T01:12:51.373Z,71.06
2022-09-12T01:15:18.208Z,70.87
2022-09-12T01:18:11.377Z,71.05
2022-09-12T01:20:46.324Z,71.10
2022-09-12T01:23:39.960Z,71.34
2022-09-12T01:26:46.119Z,71.52
2022-09-12T01:29:40.697Z,71.00
2022-09-12T01:32:10.027Z,70.28
2022-09-12T01:34:54.311Z,70.84
2022-09-12T01:37:34.123Z,70.97
2022-09-12T01:40:01.321Z,70.58
2022-09-12T01:42:33.734Z,70.57
2022-09-12T01:45:10.342Z,70.85
2022-09-12T01:47:41.888Z,70.66
2022-09-12T01:50:17.983Z,70.00
2022-09-12T01:52:52.200Z,70.31
2022-09-12T01:55:28.612Z,70.60
2022-09-12T01:58:26.889Z,70.66
2022-09-12T02:01:11.349Z,70.47
2022-09-12T02:03:45.008Z,70.61
2022-09-12T02:06:23.651Z,70.44
2022-09-12T02:08:55.888Z,70.03
2022-09-12T02:16:11.980Z,70.27
2022-09-12T02:18:45.721Z,70.55
2022-09-12T02:21:13.065Z,70.15
2022-09-12T02:24:09.871Z,70.80
2022-09-12T02:26:43.871Z,70.42
2022-09-12T02:29:10.664Z,71.23
2022-09-12T02:31:40.652Z,70.80
2022-09-12T02:34:22.586Z,71.43
2022-09-12T02:37:01.011Z,71.51
2022-09-12T02:39:28.003Z,71.81
2022-09-12T02:41:55.738Z,71.53
2022-09-12T02:44:24.591Z,71.82
2022-09-12T02:46:54.528Z,71.79
2022-09-12T02:49:21.432Z,72.05
2022-09-12T02:51:48.757Z,71.98
2022-09-12T02:54:40.125Z,71.67
2022-09-12T02:57:19.521Z,70.94
2022-09-12T02:59:50.613Z,70.64
2022-09-12T03:02:25.023Z,70.18
2022-09-12T03:05:08.757Z,69.76
2022-09-12T03:07:54.517Z,70.41
2022-09-12T03:10:30.959Z,70.44
2022-09-12T03:13:21.750Z,70.36
2022-09-12T03:16:00.346Z,70.15
2022-09-12T03:19:19.268Z,70.23
2022-09-12T03:22:13.398Z,69.92
2022-09-12T03:24:58.144Z,69.96
2022-09-12T03:27:29.663Z,70.17
2022-09-12T03:29:57.543Z,70.38
2022-09-12T03:32:44.486Z,70.44
2022-09-12T03:35:11.876Z,70.13
2022-09-12T03:42:08.823Z,70.21
2022-09-12T03:45:53.051Z,70.74
2022-09-12T03:48:19.708Z,70.18
2022-09-12T03:50:46.579Z,70.14
2022-09-12T03:53:41.603Z,70.35
2022-09-12T03:56:10.042Z,69.95
2022-09-12T03:58:37.243Z,70.09
2022-09-12T04:01:12.724Z,70.09
2022-09-12T04:03:43.222Z,70.40
2022-09-12T04:06:14.644Z,70.06
2022-09-12T04:08:43.012Z,69.92
2022-09-12T04:11:13.142Z,70.04
2022-09-12T04:13:41.493Z,70.43
2022-09-12T04:16:08.667Z,70.55
2022-09-12T04:18:36.490Z,71.09
2022-09-12T04:21:11.941Z,70.91
2022-09-12T04:23:38.645Z,71.41
2022-09-12T04:26:06.446Z,71.25
2022-09-12T04:28:34.419Z,71.30
2022-09-12T04:31:10.005Z,72.02
2022-09-12T04:33:36.959Z,72.17
2022-09-12T04:36:08.781Z,72.58
2022-09-12T04:38:35.938Z,72.50
2022-09-12T04:41:19.852Z,73.25
2022-09-12T04:43:47.681Z,72.53
2022-09-12T04:46:16.891Z,72.63
2022-09-12T04:48:43.893Z,72.57
2022-09-12T04:51:14.381Z,72.31
2022-09-12T04:53:41.994Z,71.88
2022-09-12T04:56:10.606Z,71.75
2022-09-12T04:58:38.180Z,72.27
2022-09-12T05:01:09.495Z,72.23
2022-09-12T05:03:38.923Z,72.48
2022-09-12T05:06:07.661Z,72.45
2022-09-12T05:08:37.661Z,72.60
2022-09-12T05:11:06.813Z,72.56
2022-09-12T05:13:33.913Z,72.97
2022-09-12T05:16:02.126Z,72.86
2022-09-12T05:18:29.083Z,72.73
2022-09-12T05:21:02.095Z,72.69
2022-09-12T05:23:28.642Z,73.95
2022-09-12T05:25:57.521Z,72.36
2022-09-12T05:28:25.865Z,71.94
2022-09-12T05:31:13.065Z,71.85
2022-09-12T05:33:41.462Z,71.86
2022-09-12T05:36:17.724Z,71.95
2022-09-12T05:38:45.128Z,72.31
2022-09-12T05:41:19.873Z,73.08
2022-09-12T05:43:57.430Z,72.69
2022-09-12T05:46:29.461Z,72.82
2022-09-12T05:48:58.281Z,72.95
2022-09-12T05:51:27.365Z,72.82
2022-09-12T05:53:59.867Z,73.33
2022-09-12T05:56:28.477Z,73.40
2022-09-12T05:59:01.033Z,73.52
2022-09-12T06:01:29.009Z,72.77
2022-09-12T06:04:00.623Z,72.61
2022-09-12T06:06:28.558Z,72.35
2022-09-12T06:08:58.775Z,72.44
2022-09-12T06:11:28.745Z,72.32
2022-09-12T06:13:56.851Z,72.38
2022-09-12T06:16:26.027Z,72.27
2022-09-12T06:18:57.817Z,72.28
2022-09-12T06:21:26.430Z,72.41
2022-09-12T06:23:56.911Z,72.23
2022-09-12T06:26:25.563Z,72.61
2022-09-12T06:28:53.890Z,72.62
2022-09-12T06:31:23.449Z,72.49
2022-09-12T06:33:51.894Z,72.24
2022-09-12T06:36:21.250Z,72.57
2022-09-12T06:38:51.157Z,72.79
2022-09-12T06:41:17.767Z,72.87
2022-09-12T06:43:44.358Z,72.61
2022-09-12T06:46:12.944Z,72.48
2022-09-12T06:48:46.768Z,72.44
2022-09-12T06:51:15.927Z,72.02
2022-09-12T06:53:44.197Z,72.07
2022-09-12T06:56:13.556Z,72.21
2022-09-12T06:58:40.974Z,72.47
2022-09-12T07:01:29.354Z,71.98
2022-09-12T07:04:00.237Z,72.28
2022-09-12T07:06:31.985Z,71.91
2022-09-12T07:09:00.014Z,71.98
2022-09-12T07:11:28.538Z,71.86
2022-09-12T07:13:56.436Z,72.08
2022-09-12T07:16:23.732Z,72.06
2022-09-12T07:18:51.920Z,72.05
2022-09-12T07:21:18.819Z,71.62
2022-09-12T07:23:45.576Z,71.86
2022-09-12T07:26:14.714Z,71.54
2022-09-12T07:28:41.639Z,71.42
2022-09-12T07:31:09.875Z,71.59
2022-09-12T07:33:38.279Z,71.37
2022-09-12T07:36:07.106Z,71.60
2022-09-12T07:38:33.989Z,71.07
2022-09-12T07:41:01.636Z,71.28
2022-09-12T07:43:28.346Z,71.27
2022-09-12T07:45:58.017Z,71.23
2022-09-12T07:48:24.998Z,71.45
2022-09-12T07:51:02.005Z,71.40
2022-09-12T07:53:32.915Z,71.35
2022-09-12T07:56:00.044Z,71.44
2022-09-12T07:58:26.806Z,71.16
2022-09-12T08:00:53.542Z,71.15
2022-09-12T08:03:21.134Z,71.06
2022-09-12T08:05:47.974Z,71.43
2022-09-12T08:08:15.198Z,71.40
2022-09-12T08:10:41.849Z,71.40
2022-09-12T08:13:10.732Z,72.03
2022-09-12T08:15:37.627Z,71.88
2022-09-12T08:18:04.313Z,72.14
2022-09-12T08:20:30.994Z,71.86
2022-09-12T08:22:57.579Z,72.01
2022-09-12T08:25:26.659Z,71.84
2022-09-12T08:27:53.293Z,72.03
2022-09-12T08:30:20.133Z,72.20
2022-09-12T08:32:47.375Z,72.10
2022-09-12T08:35:15.187Z,72.29
2022-09-12T08:37:43.797Z,72.08
2022-09-12T08:40:17.373Z,72.34
2022-09-12T08:43:15.042Z,72.72
2022-09-12T08:45:53.541Z,72.46
2022-09-12T08:48:20.341Z,72.64
2022-09-12T08:50:49.897Z,72.50
2022-09-12T08:53:21.636Z,72.37
2022-09-12T08:55:59.070Z,72.62
2022-09-12T08:58:27.843Z,72.75
2022-09-12T09:01:09.397Z,72.67
2022-09-12T09:03:54.471Z,72.70
2022-09-12T09:06:54.810Z,73.11
2022-09-12T09:09:54.621Z,73.41
2022-09-12T09:12:55.365Z,73.45
2022-09-12T09:15:41.138Z,72.95
2022-09-12T09:18:12.208Z,72.49
2022-09-12T09:20:57.793Z,72.85
2022-09-12T09:23:30.974Z,72.06
2022-09-12T09:26:18.261Z,72.19
2022-09-12T09:28:47.269Z,72.38
2022-09-12T09:31:22.277Z,71.89
2022-09-12T09:33:51.264Z,71.50
2022-09-12T09:36:20.797Z,71.68
2022-09-12T09:38:55.485Z,71.31
2022-09-12T09:41:46.283Z,71.33
2022-09-12T09:44:13.142Z,71.27
2022-09-12T09:46:39.819Z,71.30
2022-09-12T09:49:07.099Z,71.07
2022-09-12T09:51:39.114Z,70.52
2022-09-12T09:54:37.250Z,70.28
2022-09-12T09:57:05.294Z,69.97
2022-09-12T09:59:34.316Z,69.96
2022-09-12T10:02:08.563Z,68.45
2022-09-12T10:04:42.205Z,69.17
2022-09-12T10:07:19.427Z,68.82
2022-09-12T10:10:11.646Z,68.03
2022-09-12T10:12:39.589Z,68.16
2022-09-12T10:15:23.765Z,67.85
2022-09-12T10:17:51.553Z,67.72
2022-09-12T10:20:41.072Z,67.79
2022-09-12T10:23:37.423Z,67.73
2022-09-12T10:26:10.239Z,66.79
2022-09-12T10:28:40.530Z,66.89
2022-09-12T10:31:15.320Z,66.40
2022-09-12T10:37:06.797Z,66.79
2022-09-12T10:39:34.846Z,66.40
2022-09-12T10:42:02.139Z,65.93
2022-09-12T10:44:30.912Z,65.75
2022-09-12T10:46:58.691Z,65.47
2022-09-12T10:49:51.563Z,65.06
2022-09-12T10:52:23.288Z,65.02
2022-09-12T10:54:51.241Z,64.75
2022-09-12T10:57:17.717Z,64.88
2022-09-12T10:59:53.382Z,64.65
2022-09-12T11:02:52.254Z,64.49
2022-09-12T11:05:28.168Z,64.03
2022-09-12T11:08:23.672Z,63.80
2022-09-12T11:11:10.090Z,63.96
2022-09-12T11:13:44.555Z,63.53
2022-09-12T11:17:27.629Z,63.35
2022-09-12T11:20:30.357Z,62.98
2022-09-12T11:23:29.642Z,61.01
2022-09-12T11:26:18.928Z,61.64
2022-09-12T11:28:56.311Z,61.16
2022-09-12T11:31:31.857Z,61.63
2022-09-12T11:34:00.326Z,62.17
2022-09-12T11:36:34.156Z,60.81
2022-09-12T11:39:21.319Z,59.71
2022-09-12T11:41:51.689Z,60.38
2022-09-12T11:44:22.347Z,60.59
2022-09-12T11:46:51.922Z,60.24
2022-09-12T11:49:35.570Z,59.29
2022-09-12T11:52:24.382Z,59.62
2022-09-12T11:55:03.766Z,59.17
2022-09-12T11:57:40.801Z,58.72
2022-09-12T12:00:20.585Z,59.49
2022-09-12T12:03:02.750Z,58.93
2022-09-12T12:05:35.766Z,58.85
2022-09-12T12:08:05.362Z,58.73
2022-09-12T12:10:40.811Z,58.68
2022-09-12T12:13:19.561Z,59.32
2022-09-12T12:15:48.969Z,58.62
2022-09-12T12:18:29.351Z,57.35
2022-09-12T12:20:57.034Z,58.02
2022-09-12T12:23:34.139Z,57.37
2022-09-12T12:26:03.496Z,57.42
2022-09-12T12:28:52.870Z,56.63
2022-09-12T12:31:19.577Z,57.07
2022-09-12T12:33:46.075Z,57.23
2022-09-12T12:36:38.557Z,57.27
2022-09-12T12:39:53.864Z,57.01
2022-09-12T12:42:32.755Z,56.54
2022-09-12T12:45:20.070Z,56.96
2022-09-12T12:48:05.007Z,55.78
2022-09-12T12:50:34.402Z,56.31
2022-09-12T12:53:07.201Z,56.29
2022-09-12T12:55:38.557Z,55.97
2022-09-12T12:58:07.114Z,55.56
2022-09-12T13:00:35.608Z,55.61
2022-09-12T13:03:06.435Z,55.80
2022-09-12T13:05:48.957Z,56.23
2022-09-12T13:08:18.156Z,56.46
2022-09-12T13:10:58.505Z,55.68
2022-09-12T13:13:32.993Z,55.26
2022-09-12T13:16:00.769Z,55.08
2022-09-12T13:18:53.934Z,55.00
2022-09-12T13:21:22.137Z,55.14
2022-09-12T13:24:02.789Z,55.03
2022-09-12T13:26:41.811Z,55.04
2022-09-12T13:29:25.662Z,54.33
2022-09-12T13:31:56.499Z,54.43
2022-09-12T13:34:33.237Z,53.47
2022-09-12T13:37:35.387Z,52.71
2022-09-12T13:40:18.309Z,52.29
2022-09-12T13:42:49.074Z,54.05
2022-09-12T13:45:28.887Z,52.35
2022-09-12T13:47:58.999Z,52.81
2022-09-12T13:50:33.582Z,53.23
2022-09-12T13:53:42.458Z,53.60
2022-09-12T13:56:16.310Z,53.39
2022-09-12T13:58:53.133Z,53.11
2022-09-12T14:01:20.622Z,53.54
2022-09-12T14:04:14.342Z,52.52
2022-09-12T14:06:50.940Z,52.25
2022-09-12T14:09:26.181Z,52.19
2022-09-12T14:11:53.618Z,51.86
2022-09-12T14:14:33.362Z,51.88
2022-09-12T14:17:00.479Z,52.19
2022-09-12T14:19:29.078Z,52.17
2022-09-12T14:21:57.330Z,52.64
2022-09-12T14:24:24.222Z,52.28
2022-09-12T14:26:52.861Z,52.13
2022-09-12T14:29:19.906Z,52.10
2022-09-12T14:31:46.775Z,51.84
2022-09-12T14:34:17.783Z,51.77
2022-09-12T14:36:46.586Z,51.51
2022-09-12T14:39:19.712Z,50.40
2022-09-12T14:41:46.586Z,50.51
2022-09-12T14:44:24.218Z,50.14
2022-09-12T14:46:52.327Z,50.52
2022-09-12T14:49:31.506Z,50.33
2022-09-12T14:52:00.986Z,49.87
2022-09-12T14:54:28.538Z,49.78
2022-09-12T14:56:56.019Z,50.16
2022-09-12T14:59:36.146Z,50.32
2022-09-12T15:02:17.347Z,50.36
2022-09-12T15:04:47.998Z,50.19
2022-09-12T15:07:32.570Z,49.00
2022-09-12T15:10:03.610Z,50.21
2022-09-12T15:12:32.318Z,50.25
2022-09-12T15:15:07.786Z,50.25
2022-09-12T15:17:35.414Z,50.02
2022-09-12T15:20:02.506Z,49.78
2022-09-12T15:22:30.991Z,49.91
2022-09-12T15:24:58.734Z,50.45
2022-09-12T15:27:26.738Z,51.25
2022-09-12T15:29:54.492Z,51.40
2022-09-12T15:32:26.306Z,52.09
2022-09-12T15:34:53.472Z,51.87
2022-09-12T15:37:21.756Z,51.57
2022-09-12T15:39:49.109Z,52.14
2022-09-12T15:42:17.120Z,52.24
2022-09-12T15:44:43.892Z,52.65
2022-09-12T15:47:13.334Z,52.94
2022-09-12T15:49:40.735Z,52.64
2022-09-12T15:52:15.498Z,52.64
2022-09-12T15:54:43.369Z,51.94
2022-09-12T15:57:10.390Z,52.43
2022-09-12T15:59:38.239Z,52.72
2022-09-12T16:02:05.002Z,51.98
2022-09-12T16:04:31.711Z,52.80
2022-09-12T16:06:58.468Z,52.85
2022-09-12T16:09:25.212Z,53.02
2022-09-12T16:11:52.280Z,53.14
2022-09-12T16:14:23.306Z,53.10
2022-09-12T16:16:59.783Z,53.35
2022-09-12T16:19:26.479Z,53.69
2022-09-12T16:21:53.173Z,53.66
2022-09-12T16:24:19.833Z,53.85
2022-09-12T16:26:46.479Z,53.62
2022-09-12T16:29:14.309Z,53.80
2022-09-12T16:31:41.036Z,53.57
2022-09-12T16:34:07.783Z,53.56
2022-09-12T16:36:34.521Z,53.53
2022-09-12T16:39:01.239Z,53.58
2022-09-12T16:41:28.211Z,53.78
2022-09-12T16:43:55.292Z,53.79
2022-09-12T16:46:28.580Z,53.85
2022-09-12T16:48:57.014Z,54.12
2022-09-12T16:51:27.169Z,53.69
2022-09-12T16:53:55.069Z,53.79
2022-09-12T16:56:22.458Z,53.65
2022-09-12T16:58:49.258Z,53.83
2022-09-12T17:01:23.316Z,54.11
2022-09-12T17:03:57.760Z,54.13
2022-09-12T17:06:25.415Z,54.36
2022-09-12T17:08:53.119Z,54.63
2022-09-12T17:11:25.495Z,54.49
2022-09-12T17:14:04.571Z,54.51
2022-09-12T17:16:33.160Z,54.27
2022-09-12T17:18:59.801Z,54.62
2022-09-12T17:21:26.485Z,55.08
2022-09-12T17:23:53.134Z,55.09
2022-09-12T17:26:20.718Z,55.28
2022-09-12T17:28:48.103Z,55.35
2022-09-12T17:31:15.335Z,55.54
2022-09-12T17:33:42.270Z,55.39
2022-09-12T17:36:16.475Z,55.84
2022-09-12T17:38:44.973Z,55.72
2022-09-12T17:41:17.648Z,55.67
2022-09-12T17:43:50.180Z,56.21
2022-09-12T17:46:20.684Z,56.15
2022-09-12T17:48:55.235Z,56.42
2022-09-12T17:51:24.902Z,56.18
2022-09-12T17:54:18.735Z,56.54
2022-09-12T17:56:48.907Z,56.51
2022-09-12T17:59:19.106Z,56.82
2022-09-12T18:02:04.420Z,56.84
2022-09-12T18:04:31.242Z,56.75
2022-09-12T18:07:00.212Z,56.94
2022-09-12T18:09:27.884Z,57.55
2022-09-12T18:11:54.860Z,57.79
2022-09-12T18:14:21.968Z,57.88
2022-09-12T18:16:49.169Z,58.09
2022-09-12T18:19:16.448Z,58.20
2022-09-12T18:21:43.320Z,58.00
2022-09-12T18:24:10.549Z,58.26
2022-09-12T18:26:37.568Z,58.54
2022-09-12T18:29:04.374Z,58.53
2022-09-12T18:31:31.265Z,58.60
2022-09-12T18:33:59.789Z,58.39
2022-09-12T18:36:27.098Z,59.03
2022-09-12T18:38:53.980Z,59.41
2022-09-12T18:41:24.798Z,59.27
2022-09-12T18:43:59.306Z,60.07
2022-09-12T18:46:27.148Z,59.37
2022-09-12T18:48:57.880Z,60.12
2022-09-12T18:51:33.461Z,60.18
2022-09-12T18:54:13.034Z,60.44
2022-09-12T18:56:43.439Z,59.88
2022-09-12T18:59:12.759Z,60.04
2022-09-12T19:01:39.829Z,60.40
2022-09-12T19:04:07.619Z,60.20
2022-09-12T19:06:39.403Z,60.09
2022-09-12T19:09:08.163Z,59.95
2022-09-12T19:11:37.305Z,60.27
2022-09-12T19:14:05.283Z,60.52
2022-09-12T19:16:32.231Z,60.66
2022-09-12T19:18:59.443Z,60.78
2022-09-12T19:21:29.206Z,60.92
2022-09-12T19:23:58.082Z,61.14
2022-09-12T19:26:24.971Z,61.05
2022-09-12T19:28:52.097Z,61.03
2022-09-12T19:31:20.149Z,61.11
2022-09-12T19:33:47.299Z,60.92
2022-09-12T19:36:41.314Z,60.27
2022-09-12T19:39:04.693Z,59.94
2022-09-12T19:41:31.475Z,60.01
2022-09-12T19:43:59.061Z,60.19
2022-09-12T19:46:26.886Z,60.43
2022-09-12T19:48:54.077Z,60.88
2022-09-12T19:51:22.317Z,61.33
2022-09-12T19:53:50.209Z,61.58
2022-09-12T19:56:17.022Z,61.38
2022-09-12T19:58:45.732Z,61.36
2022-09-12T20:01:29.736Z,61.00
2022-09-12T20:03:57.501Z,61.02
2022-09-12T20:06:24.863Z,60.74
2022-09-12T20:08:51.496Z,61.04
2022-09-12T20:11:19.840Z,61.97
2022-09-12T20:13:47.052Z,61.75
2022-09-12T20:16:22.733Z,61.80
2022-09-12T20:18:54.919Z,62.62
2022-09-12T20:21:25.239Z,62.20
2022-09-12T20:23:52.259Z,62.40
2022-09-12T20:26:20.203Z,62.17
2022-09-12T20:28:47.521Z,62.55
2022-09-12T20:31:15.462Z,62.79
2022-09-12T20:33:42.375Z,62.65
2022-09-12T20:36:14.915Z,62.87
2022-09-12T20:38:46.253Z,62.95
2022-09-12T20:41:12.923Z,63.09
2022-09-12T20:43:40.063Z,63.13
2022-09-12T20:46:10.998Z,63.02
2022-09-12T20:48:38.365Z,62.98
2022-09-12T20:51:05.714Z,63.12
2022-09-12T20:53:35.076Z,62.98
2022-09-12T20:56:02.962Z,63.00
2022-09-12T20:58:29.673Z,62.72
2022-09-12T21:00:56.507Z,62.69
2022-09-12T21:03:23.241Z,62.86
2022-09-12T21:05:49.928Z,63.05
2022-09-12T21:08:16.789Z,63.28
2022-09-12T21:10:44.446Z,63.19
2022-09-12T21:13:12.208Z,63.35
2022-09-12T21:15:39.631Z,63.41
2022-09-12T21:18:06.985Z,63.39
2022-09-12T21:20:34.042Z,63.49
2022-09-12T21:23:00.744Z,63.26
2022-09-12T21:25:28.987Z,63.68
2022-09-12T21:27:55.689Z,63.58
2022-09-12T21:30:22.510Z,63.71
2022-09-12T21:32:49.211Z,63.67
2022-09-12T21:35:16.008Z,63.82
2022-09-12T21:37:42.688Z,63.88
2022-09-12T21:40:09.652Z,63.91
2022-09-12T21:42:36.873Z,64.00
2022-09-12T21:45:03.852Z,63.96
2022-09-12T21:47:30.893Z,64.23
2022-09-12T21:49:58.362Z,63.86
2022-09-12T21:52:25.175Z,63.77
2022-09-12T21:54:51.837Z,64.02
2022-09-12T21:57:18.472Z,63.52
2022-09-12T21:59:45.202Z,63.52
2022-09-12T22:02:12.353Z,63.31
2022-09-12T22:04:39.125Z,63.68
2022-09-12T22:07:05.963Z,64.18
2022-09-12T22:09:34.283Z,64.10
2022-09-12T22:12:02.172Z,64.24
2022-09-12T22:14:29.401Z,63.67
2022-09-12T22:16:56.695Z,63.67
2022-09-12T22:19:23.485Z,63.83
2022-09-12T22:22:08.794Z,64.06
2022-09-12T22:24:35.464Z,64.28
2022-09-12T22:27:03.998Z,64.02
2022-09-12T22:29:30.982Z,63.70
2022-09-12T22:31:59.025Z,63.25
2022-09-12T22:34:26.599Z,63.62
2022-09-12T22:36:53.369Z,63.45
2022-09-12T22:39:20.039Z,64.07
2022-09-12T22:41:46.744Z,63.77
2022-09-12T22:44:13.505Z,63.60
2022-09-12T22:46:40.445Z,63.50
2022-09-12T22:49:07.421Z,63.69
2022-09-12T22:51:34.155Z,63.77
2022-09-12T22:54:00.893Z,64.29
2022-09-12T22:56:27.577Z,64.52
2022-09-12T22:58:54.345Z,64.77
2022-09-12T23:01:21.118Z,64.93
2022-09-12T23:03:47.934Z,65.34
2022-09-12T23:06:14.734Z,65.63
2022-09-12T23:08:41.582Z,65.43
2022-09-12T23:11:12.822Z,65.58
2022-09-12T23:13:42.079Z,65.46
2022-09-12T23:16:11.958Z,65.52
2022-09-12T23:18:39.152Z,65.72
2022-09-12T23:21:07.833Z,65.71
2022-09-12T23:23:35.415Z,65.52
2022-09-12T23:26:06.479Z,65.48
2022-09-12T23:28:34.637Z,65.38
2022-09-12T23:31:01.813Z,65.46
2022-09-12T23:33:29.604Z,65.50
2022-09-12T23:36:03.391Z,65.16
2022-09-12T23:38:30.713Z,65.62
2022-09-12T23:40:58.106Z,65.51
2022-09-12T23:43:25.050Z,66.03
2022-09-12T23:45:51.761Z,66.07
2022-09-12T23:48:18.710Z,65.99
2022-09-12T23:50:46.627Z,66.11
2022-09-12T23:53:14.739Z,66.25
2022-09-12T23:55:42.149Z,66.08
2022-09-12T23:58:09.110Z,65.84
